No particular awareness of the weather is required.    There are no Weather-warnings


Meteo18 Weather Cam more information Meteo18 Weather Cam


Thunder radar more information blitzortung!


Rain radar more information rain snow radar


Visit our other weather sites:

Template documentation
and downloads

And another site



Weather Underground History page Text

Daily Summary for June 19, 2017 Units:  English    Metric   Both
« Previous Day
Next Day »
Daily Weekly Monthly Yearly Custom
  High: Low: Average:
Temperature: TemperatureC °F 16.4 °F 25.5 °F
Dew Point: DewpointC °F 13.7 °F 16.3 °F
Humidity: Humidity % 33 % 59 %
Wind Speed: WindSpeedKMH mph 0.0 mph 2.3 mph
Wind Gust: WindSpeedGustKMH mph - -
Wind:- - SSE
Pressure: PressurehPa in 1016.1 in -
Precipitation: 0.0 in    
Historical Graphs
 
 
Tabular Data for June 19, 2017
Time Temperature Dew Point Pressure Wind Wind Speed Wind Gust Humidity Rainfall Rate (Hourly)
TemperatureC °F DewpointC °F PressurehPa in Calm     Humidity % HourlyPrecipMM in
00:02 21.8 °F 15.4 °F 1019.9 in NE 4.8 mph 12.9 mph 67 % 0.0 in
00:07 21.7 °F 15.3 °F 1019.9 in NE 6.4 mph 12.9 mph 67 % 0.0 in
00:12 21.7 °F 15.3 °F 1019.9 in NE 3.2 mph 12.9 mph 67 % 0.0 in
00:17 21.4 °F 15.2 °F 1019.9 in NE 3.2 mph 12.9 mph 68 % 0.0 in
00:22 21.3 °F 15.2 °F 1019.9 in Calm   9.7 mph 68 % 0.0 in
00:27 21.1 °F 15.2 °F 1019.9 in Calm   9.7 mph 69 % 0.0 in
00:32 20.9 °F 15.0 °F 1019.9 in Calm   9.7 mph 69 % 0.0 in
00:42 20.5 °F 15.1 °F 1019.9 in Calm   4.8 mph 71 % 0.0 in
00:47 20.4 °F 15.2 °F 1019.9 in Calm   1.6 mph 72 % 0.0 in
00:52 20.6 °F 15.2 °F 1019.9 in NE 1.6 mph 3.2 mph 71 % 0.0 in
00:57 20.7 °F 15.3 °F 1019.9 in NE 1.6 mph 6.4 mph 71 % 0.0 in
01:02 20.7 °F 15.3 °F 1019.9 in NE 1.6 mph 6.4 mph 71 % 0.0 in
01:07 20.7 °F 15.3 °F 1019.5 in NE 1.6 mph 6.4 mph 71 % 0.0 in
01:12 20.6 °F 15.2 °F 1019.5 in NE 1.6 mph 4.8 mph 71 % 0.0 in
01:17 20.4 °F 15.2 °F 1019.5 in Calm   4.8 mph 72 % 0.0 in
01:22 20.2 °F 15.2 °F 1019.5 in Calm   4.8 mph 73 % 0.0 in
01:27 20.1 °F 15.1 °F 1019.5 in NNW 1.6 mph 4.8 mph 73 % 0.0 in
01:32 20.1 °F 15.1 °F 1019.2 in NNW 3.2 mph 4.8 mph 73 % 0.0 in
01:37 20.1 °F 15.1 °F 1019.2 in NW 1.6 mph 4.8 mph 73 % 0.0 in
01:42 20.1 °F 15.1 °F 1019.5 in NNW 1.6 mph 4.8 mph 73 % 0.0 in
01:47 19.9 °F 14.9 °F 1019.2 in Calm   4.8 mph 73 % 0.0 in
01:57 19.7 °F 14.7 °F 1019.2 in NW 1.6 mph 4.8 mph 73 % 0.0 in
02:02 19.6 °F 14.8 °F 1019.2 in NNW 1.6 mph 4.8 mph 74 % 0.0 in
02:07 19.5 °F 14.7 °F 1019.2 in Calm   4.8 mph 74 % 0.0 in
02:12 19.2 °F 14.7 °F 1019.2 in North 1.6 mph 3.2 mph 75 % 0.0 in
02:17 19.1 °F 14.6 °F 1019.2 in NNW 1.6 mph 3.2 mph 75 % 0.0 in
02:22 18.9 °F 14.6 °F 1019.2 in NW 1.6 mph 3.2 mph 76 % 0.0 in
02:27 18.8 °F 14.5 °F 1019.2 in Calm   3.2 mph 76 % 0.0 in
02:32 18.7 °F 14.6 °F 1019.2 in Calm   3.2 mph 77 % 0.0 in
02:37 18.6 °F 14.5 °F 1019.2 in Calm   3.2 mph 77 % 0.0 in
02:42 18.6 °F 14.5 °F 1019.2 in Calm   1.6 mph 77 % 0.0 in
02:47 18.5 °F 14.6 °F 1019.2 in NNW 3.2 mph 3.2 mph 78 % 0.0 in
02:52 18.5 °F 14.6 °F 1019.2 in Calm   3.2 mph 78 % 0.0 in
02:57 18.4 °F 14.5 °F 1019.2 in NW 1.6 mph 3.2 mph 78 % 0.0 in
03:02 18.3 °F 14.4 °F 1019.2 in NNW 1.6 mph 3.2 mph 78 % 0.0 in
03:07 18.4 °F 14.5 °F 1019.2 in NNW 3.2 mph 3.2 mph 78 % 0.0 in
03:12 18.3 °F 14.4 °F 1019.2 in Calm   3.2 mph 78 % 0.0 in
03:17 18.1 °F 14.4 °F 1019.2 in NW 1.6 mph 4.8 mph 79 % 0.0 in
03:22 17.9 °F 14.4 °F 1019.2 in NW 3.2 mph 4.8 mph 80 % 0.0 in
03:27 17.8 °F 14.3 °F 1019.2 in NNW 3.2 mph 4.8 mph 80 % 0.0 in
03:32 17.9 °F 14.4 °F 1019.2 in North 1.6 mph 4.8 mph 80 % 0.0 in
03:37 17.8 °F 14.3 °F 1019.2 in North 1.6 mph 4.8 mph 80 % 0.0 in
03:42 17.8 °F 14.3 °F 1018.8 in Calm   3.2 mph 80 % 0.0 in
03:47 17.9 °F 14.4 °F 1018.8 in NNW 1.6 mph 3.2 mph 80 % 0.0 in
03:52 17.9 °F 14.4 °F 1018.8 in North 1.6 mph 4.8 mph 80 % 0.0 in
03:57 17.8 °F 14.3 °F 1018.8 in Calm   4.8 mph 80 % 0.0 in
04:02 17.7 °F 14.2 °F 1018.8 in Calm   4.8 mph 80 % 0.0 in
04:12 17.7 °F 14.2 °F 1018.8 in Calm   3.2 mph 80 % 0.0 in
04:17 17.7 °F 14.2 °F 1019.2 in Calm   3.2 mph 80 % 0.0 in
04:22 17.6 °F 14.1 °F 1018.8 in Calm   3.2 mph 80 % 0.0 in
04:27 17.4 °F 13.9 °F 1018.8 in Calm   1.6 mph 80 % 0.0 in
04:32 17.1 °F 13.8 °F 1018.8 in Calm   1.6 mph 81 % 0.0 in
04:37 17.0 °F 13.9 °F 1018.8 in Calm   1.6 mph 82 % 0.0 in
04:42 16.7 °F 13.8 °F 1018.8 in WNW 1.6 mph 1.6 mph 83 % 0.0 in
04:47 16.6 °F 13.9 °F 1018.8 in Calm   1.6 mph 84 % 0.0 in
04:52 16.7 °F 14.0 °F 1018.8 in Calm   1.6 mph 84 % 0.0 in
04:57 16.8 °F 14.1 °F 1018.8 in Calm   1.6 mph 84 % 0.0 in
05:02 16.9 °F 14.0 °F 1018.8 in Calm   1.6 mph 83 % 0.0 in
05:12 16.9 °F 14.0 °F 1018.8 in Calm   1.6 mph 83 % 0.0 in
05:17 16.8 °F 13.9 °F 1018.8 in NNW 1.6 mph   83 % 0.0 in
05:22 16.8 °F 13.9 °F 1018.8 in Calm     83 % 0.0 in
05:32 16.4 °F 13.7 °F 1018.8 in North 1.6 mph 3.2 mph 84 % 0.0 in
05:42 16.4 °F 13.7 °F 1018.8 in NNW 3.2 mph 3.2 mph 84 % 0.0 in
05:47 16.5 °F 13.8 °F 1018.8 in NW 3.2 mph 3.2 mph 84 % 0.0 in
05:52 16.7 °F 14.0 °F 1018.8 in NNW 1.6 mph 3.2 mph 84 % 0.0 in
05:57 16.7 °F 13.8 °F 1018.8 in Calm   4.8 mph 83 % 0.0 in
06:02 16.6 °F 13.7 °F 1018.8 in North 3.2 mph 4.8 mph 83 % 0.0 in
06:07 16.5 °F 13.8 °F 1018.8 in Calm   4.8 mph 84 % 0.0 in
06:12 16.4 °F 13.7 °F 1018.8 in NNW 3.2 mph 4.8 mph 84 % 0.0 in
06:17 16.4 °F 13.7 °F 1018.8 in NNE 1.6 mph 4.8 mph 84 % 0.0 in
06:22 16.4 °F 13.7 °F 1018.8 in North 3.2 mph 4.8 mph 84 % 0.0 in
06:27 16.6 °F 13.9 °F 1018.8 in North 1.6 mph 4.8 mph 84 % 0.0 in
06:32 16.7 °F 13.8 °F 1018.8 in North 3.2 mph 4.8 mph 83 % 0.0 in
06:42 17.3 °F 14.2 °F 1018.8 in NW 3.2 mph 4.8 mph 82 % 0.0 in
06:47 17.6 °F 14.3 °F 1018.8 in Calm   4.8 mph 81 % 0.0 in
06:52 17.9 °F 14.6 °F 1018.8 in Calm   4.8 mph 81 % 0.0 in
06:57 18.0 °F 14.3 °F 1018.8 in NE 3.2 mph 4.8 mph 79 % 0.0 in
07:02 17.8 °F 14.1 °F 1018.8 in North 1.6 mph 4.8 mph 79 % 0.0 in
07:12 18.4 °F 14.7 °F 1019.2 in Calm   3.2 mph 79 % 0.0 in
07:17 18.8 °F 14.7 °F 1019.2 in North 3.2 mph 3.2 mph 77 % 0.0 in
07:22 19.0 °F 15.1 °F 1019.2 in Calm   3.2 mph 78 % 0.0 in
07:32 19.2 °F 15.1 °F 1019.2 in NNE 3.2 mph 3.2 mph 77 % 0.0 in
07:37 19.1 °F 15.0 °F 1019.2 in NNE 3.2 mph 3.2 mph 77 % 0.0 in
07:42 19.2 °F 15.5 °F 1019.2 in North 3.2 mph 3.2 mph 79 % 0.0 in
07:47 19.3 °F 15.4 °F 1019.2 in Calm   4.8 mph 78 % 0.0 in
07:52 19.6 °F 15.5 °F 1019.2 in NE 1.6 mph 4.8 mph 77 % 0.0 in
08:02 20.1 °F 15.7 °F 1019.2 in Calm   4.8 mph 76 % 0.0 in
08:12 20.7 °F 15.7 °F 1019.2 in NNE 3.2 mph 4.8 mph 73 % 0.0 in
08:17 20.9 °F 15.9 °F 1019.2 in East 1.6 mph 4.8 mph 73 % 0.0 in
08:22 21.2 °F 16.2 °F 1019.2 in NNE 3.2 mph 4.8 mph 73 % 0.0 in
08:32 21.9 °F 16.6 °F 1019.2 in Calm   4.8 mph 72 % 0.0 in
08:37 22.3 °F 16.3 °F 1019.2 in NNE 3.2 mph 3.2 mph 69 % 0.0 in
08:42 22.5 °F 16.3 °F 1019.2 in NNE 3.2 mph 3.2 mph 68 % 0.0 in
08:52 23.0 °F 16.3 °F 1019.2 in East 3.2 mph 4.8 mph 66 % 0.0 in
09:02 23.4 °F 16.7 °F 1018.8 in East 1.6 mph 4.8 mph 66 % 0.0 in
09:12 23.8 °F 16.6 °F 1018.8 in Calm   9.7 mph 64 % 0.0 in
09:22 24.4 °F 16.9 °F 1019.2 in ESE 3.2 mph 11.3 mph 63 % 0.0 in
09:32 24.3 °F 16.8 °F 1019.2 in SE 1.6 mph 8.0 mph 63 % 0.0 in
09:42 24.6 °F 17.3 °F 1019.2 in Calm   8.0 mph 64 % 0.0 in
09:47 24.8 °F 17.0 °F 1019.2 in ENE 6.4 mph 9.7 mph 62 % 0.0 in
09:52 24.6 °F 17.3 °F 1019.2 in SE 3.2 mph 9.7 mph 64 % 0.0 in
10:02 24.8 °F 17.3 °F 1018.8 in SSW 1.6 mph 6.4 mph 63 % 0.0 in
10:12 25.1 °F 17.3 °F 1018.8 in East 3.2 mph 9.7 mph 62 % 0.0 in
10:22 25.6 °F 17.5 °F 1018.8 in Calm   9.7 mph 61 % 0.0 in
10:32 25.9 °F 18.1 °F 1018.8 in ENE 3.2 mph 8.0 mph 62 % 0.0 in
10:42 25.7 °F 17.6 °F 1018.8 in Calm   6.4 mph 61 % 0.0 in
10:47 26.0 °F 17.9 °F 1018.8 in ESE 4.8 mph 11.3 mph 61 % 0.0 in
10:52 26.1 °F 17.7 °F 1018.8 in ENE 1.6 mph 11.3 mph 60 % 0.0 in
11:02 26.8 °F 18.1 °F 1018.5 in ESE 4.8 mph 8.0 mph 59 % 0.0 in
11:12 27.6 °F 18.9 °F 1018.5 in East 1.6 mph 8.0 mph 59 % 0.0 in
11:17 28.0 °F 18.7 °F 1018.5 in Calm   6.4 mph 57 % 0.0 in
11:22 28.2 °F 18.6 °F 1018.5 in East 3.2 mph 6.4 mph 56 % 0.0 in
11:32 28.4 °F 18.2 °F 1018.5 in ESE 8.0 mph 8.0 mph 54 % 0.0 in
11:42 28.2 °F 18.6 °F 1018.5 in Calm   9.7 mph 56 % 0.0 in
11:47 28.4 °F 18.2 °F 1018.5 in ENE 4.8 mph 14.5 mph 54 % 0.0 in
11:52 28.6 °F 18.7 °F 1018.5 in ESE 3.2 mph 14.5 mph 55 % 0.0 in
12:02 28.8 °F 18.6 °F 1018.5 in Calm   11.3 mph 54 % 0.0 in
12:12 29.1 °F 18.8 °F 1018.5 in SE 1.6 mph 11.3 mph 54 % 0.0 in
12:17 29.3 °F 18.4 °F 1018.5 in SW 3.2 mph 11.3 mph 52 % 0.0 in
12:22 29.6 °F 18.4 °F 1018.5 in ENE 4.8 mph 8.0 mph 51 % 0.0 in
12:27 29.4 °F 18.2 °F 1018.2 in SE 3.2 mph 8.0 mph 51 % 0.0 in
12:32 29.7 °F 18.5 °F 1018.2 in NE 6.4 mph 8.0 mph 51 % 0.0 in
12:42 30.2 °F 18.0 °F 1018.2 in ENE 3.2 mph 8.0 mph 48 % 0.0 in
12:47 30.3 °F 17.7 °F 1018.2 in ENE 8.0 mph 8.0 mph 47 % 0.0 in
12:52 30.2 °F 18.3 °F 1018.2 in ENE 6.4 mph 9.7 mph 49 % 0.0 in
12:57 29.8 °F 17.6 °F 1018.2 in ENE 6.4 mph 12.9 mph 48 % 0.0 in
13:02 29.9 °F 17.7 °F 1018.2 in NE 4.8 mph 12.9 mph 48 % 0.0 in
13:07 30.1 °F 17.9 °F 1017.8 in NE 6.4 mph 12.9 mph 48 % 0.0 in
13:12 30.3 °F 17.4 °F 1018.2 in East 8.0 mph 12.9 mph 46 % 0.0 in
13:17 30.5 °F 16.5 °F 1017.8 in WSW 1.6 mph 11.3 mph 43 % 0.0 in
13:22 30.9 °F 16.9 °F 1017.8 in Calm   9.7 mph 43 % 0.0 in
13:27 31.3 °F 16.9 °F 1017.8 in ENE 3.2 mph 9.7 mph 42 % 0.0 in
13:32 31.5 °F 17.8 °F 1017.8 in SW 3.2 mph 9.7 mph 44 % 0.0 in
13:42 31.9 °F 17.8 °F 1017.8 in SSE 1.6 mph 9.7 mph 43 % 0.0 in
13:52 31.8 °F 17.3 °F 1017.8 in ENE 6.4 mph 11.3 mph 42 % 0.0 in
13:57 31.6 °F 17.1 °F 1017.8 in ENE 4.8 mph 12.9 mph 42 % 0.0 in
14:02 31.8 °F 17.3 °F 1017.5 in WSW 1.6 mph 12.9 mph 42 % 0.0 in
14:12 31.7 °F 16.8 °F 1017.5 in East 3.2 mph 11.3 mph 41 % 0.0 in
14:17 31.6 °F 17.5 °F 1017.5 in ENE 1.6 mph 11.3 mph 43 % 0.0 in
14:22 31.7 °F 17.6 °F 1017.5 in ENE 1.6 mph 11.3 mph 43 % 0.0 in
14:27 31.6 °F 17.5 °F 1017.5 in ENE 8.0 mph 16.1 mph 43 % 0.0 in
14:32 31.6 °F 17.1 °F 1017.5 in West 3.2 mph 16.1 mph 42 % 0.0 in
14:37 31.9 °F 17.8 °F 1017.5 in SSE 6.4 mph 16.1 mph 43 % 0.0 in
14:42 32.4 °F 17.8 °F 1017.5 in SE 3.2 mph 16.1 mph 42 % 0.0 in
14:47 32.5 °F 17.5 °F 1017.2 in East 4.8 mph 16.1 mph 41 % 0.0 in
14:52 32.6 °F 17.6 °F 1017.2 in SE 1.6 mph 16.1 mph 41 % 0.0 in
14:57 32.9 °F 17.9 °F 1017.2 in SSE 6.4 mph 12.9 mph 41 % 0.0 in
15:02 32.7 °F 17.7 °F 1017.2 in SE 1.6 mph 12.9 mph 41 % 0.0 in
15:07 33.1 °F 17.7 °F 1017.2 in ENE 3.2 mph 12.9 mph 40 % 0.0 in
15:12 32.7 °F 17.7 °F 1017.2 in East 9.7 mph 11.3 mph 41 % 0.0 in
15:22 33.4 °F 18.3 °F 1017.2 in SSW 4.8 mph 11.3 mph 41 % 0.0 in
15:27 33.4 °F 17.1 °F 1017.2 in Calm   11.3 mph 38 % 0.0 in
15:32 33.7 °F 18.2 °F 1017.2 in ESE 4.8 mph 11.3 mph 40 % 0.0 in
15:37 33.6 °F 17.7 °F 1017.2 in ENE 11.3 mph 11.3 mph 39 % 0.0 in
15:42 33.4 °F 17.6 °F 1017.2 in SE 9.7 mph 14.5 mph 39 % 0.0 in
15:47 33.6 °F 17.7 °F 1017.2 in ESE 1.6 mph 14.5 mph 39 % 0.0 in
15:52 33.4 °F 17.1 °F 1017.2 in SW 4.8 mph 14.5 mph 38 % 0.0 in
16:02 33.5 °F 16.8 °F 1016.8 in SSW 4.8 mph 12.9 mph 37 % 0.0 in
16:07 33.4 °F 17.1 °F 1017.2 in ESE 4.8 mph 11.3 mph 38 % 0.0 in
16:12 33.1 °F 16.5 °F 1016.8 in East 6.4 mph 14.5 mph 37 % 0.0 in
16:17 33.2 °F 16.5 °F 1017.2 in SSE 3.2 mph 14.5 mph 37 % 0.0 in
16:22 33.4 °F 16.7 °F 1016.8 in East 4.8 mph 14.5 mph 37 % 0.0 in
16:32 33.3 °F 16.2 °F 1016.8 in ENE 3.2 mph 11.3 mph 36 % 0.0 in
16:37 33.4 °F 16.7 °F 1016.8 in ENE 9.7 mph 11.3 mph 37 % 0.0 in
16:42 33.5 °F 15.9 °F 1016.8 in SSE 4.8 mph 12.9 mph 35 % 0.0 in
16:47 33.4 °F 15.8 °F 1016.8 in Calm   12.9 mph 35 % 0.0 in
16:52 33.7 °F 17.4 °F 1016.8 in SE 3.2 mph 12.9 mph 38 % 0.0 in
16:57 33.7 °F 16.6 °F 1016.8 in East 3.2 mph 8.0 mph 36 % 0.0 in
17:02 33.7 °F 15.7 °F 1016.8 in SW 4.8 mph 8.0 mph 34 % 0.0 in
17:07 33.7 °F 16.1 °F 1016.5 in East 4.8 mph 6.4 mph 35 % 0.0 in
17:12 33.6 °F 16.5 °F 1016.5 in ESE 3.2 mph 9.7 mph 36 % 0.0 in
17:22 33.4 °F 15.8 °F 1016.5 in SE 3.2 mph 11.3 mph 35 % 0.0 in
17:27 33.6 °F 16.0 °F 1016.5 in ESE 1.6 mph 11.3 mph 35 % 0.0 in
17:32 33.7 °F 16.1 °F 1016.5 in NE 6.4 mph 11.3 mph 35 % 0.0 in
17:37 33.3 °F 15.8 °F 1016.5 in Calm   11.3 mph 35 % 0.0 in
17:42 33.6 °F 16.0 °F 1016.5 in ESE 6.4 mph 11.3 mph 35 % 0.0 in
17:47 33.4 °F 15.8 °F 1016.5 in ENE 8.0 mph 11.3 mph 35 % 0.0 in
17:52 33.2 °F 15.7 °F 1016.5 in East 3.2 mph 11.3 mph 35 % 0.0 in
17:57 33.2 °F 15.2 °F 1016.5 in ESE 4.8 mph 11.3 mph 34 % 0.0 in
18:02 33.3 °F 15.8 °F 1016.1 in SE 4.8 mph 11.3 mph 35 % 0.0 in
18:12 33.1 °F 15.1 °F 1016.5 in ENE 6.4 mph 12.9 mph 34 % 0.0 in
18:17 33.1 °F 15.6 °F 1016.1 in East 3.2 mph 12.9 mph 35 % 0.0 in
18:22 33.0 °F 15.0 °F 1016.1 in East 4.8 mph 12.9 mph 34 % 0.0 in
18:27 33.1 °F 15.1 °F 1016.1 in East 1.6 mph 12.9 mph 34 % 0.0 in
18:32 33.6 °F 16.0 °F 1016.1 in Calm   9.7 mph 35 % 0.0 in
18:42 33.8 °F 15.3 °F 1016.1 in East 1.6 mph 8.0 mph 33 % 0.0 in
18:47 33.6 °F 15.6 °F 1016.1 in SE 1.6 mph 6.4 mph 34 % 0.0 in
18:52 33.9 °F 15.8 °F 1016.1 in East 1.6 mph 6.4 mph 34 % 0.0 in
18:57 33.8 °F 15.7 °F 1016.1 in Calm   6.4 mph 34 % 0.0 in
19:02 33.8 °F 15.7 °F 1016.1 in East 1.6 mph 6.4 mph 34 % 0.0 in
19:12 33.6 °F 16.5 °F 1016.1 in SSW 3.2 mph 6.4 mph 36 % 0.0 in
19:22 33.6 °F 16.0 °F 1016.1 in SE 4.8 mph 6.4 mph 35 % 0.0 in
19:32 33.8 °F 17.1 °F 1016.1 in Calm   6.4 mph 37 % 0.0 in
19:37 33.7 °F 17.0 °F 1016.1 in Calm   4.8 mph 37 % 0.0 in
19:42 33.2 °F 17.4 °F 1016.1 in East 3.2 mph 4.8 mph 39 % 0.0 in
19:47 32.7 °F 17.7 °F 1016.1 in East 4.8 mph 9.7 mph 41 % 0.0 in
19:52 32.3 °F 17.7 °F 1016.1 in East 3.2 mph 9.7 mph 42 % 0.0 in
19:57 32.1 °F 17.9 °F 1016.1 in ENE 3.2 mph 9.7 mph 43 % 0.0 in
20:02 31.9 °F 18.1 °F 1016.1 in East 4.8 mph 9.7 mph 44 % 0.0 in
20:07 31.8 °F 18.4 °F 1016.1 in Calm   6.4 mph 45 % 0.0 in
20:12 31.7 °F 18.3 °F 1016.1 in East 1.6 mph 6.4 mph 45 % 0.0 in
20:17 31.6 °F 18.2 °F 1016.1 in Calm   6.4 mph 45 % 0.0 in
20:22 31.5 °F 18.1 °F 1016.1 in East 1.6 mph 6.4 mph 45 % 0.0 in
20:27 31.4 °F 18.4 °F 1016.1 in ENE 1.6 mph 6.4 mph 46 % 0.0 in
20:32 31.4 °F 18.0 °F 1016.1 in ENE 3.2 mph 6.4 mph 45 % 0.0 in
20:37 31.2 °F 18.2 °F 1016.1 in ESE 1.6 mph 4.8 mph 46 % 0.0 in
20:42 31.1 °F 18.5 °F 1016.1 in East 3.2 mph 4.8 mph 47 % 0.0 in
20:52 30.4 °F 18.5 °F 1016.1 in ENE 3.2 mph 8.0 mph 49 % 0.0 in
20:57 30.2 °F 18.9 °F 1016.5 in ENE 3.2 mph 8.0 mph 51 % 0.0 in
21:02 29.9 °F 18.7 °F 1016.5 in ENE 1.6 mph 8.0 mph 51 % 0.0 in
21:07 29.9 °F 19.0 °F 1016.5 in Calm   4.8 mph 52 % 0.0 in
21:12 30.3 °F 19.3 °F 1016.5 in Calm   3.2 mph 52 % 0.0 in
21:17 29.9 °F 18.7 °F 1016.5 in Calm   1.6 mph 51 % 0.0 in
21:22 29.8 °F 18.3 °F 1016.5 in Calm   1.6 mph 50 % 0.0 in
21:32 29.3 °F 18.1 °F 1016.1 in East 1.6 mph 1.6 mph 51 % 0.0 in
21:37 28.9 °F 18.1 °F 1016.5 in ENE 1.6 mph 3.2 mph 52 % 0.0 in
21:42 28.4 °F 18.2 °F 1016.5 in Calm   3.2 mph 54 % 0.0 in
21:47 27.7 °F 18.1 °F 1016.5 in Calm   3.2 mph 56 % 0.0 in
21:52 27.0 °F 18.0 °F 1016.5 in Calm   1.6 mph 58 % 0.0 in
22:02 26.3 °F 18.2 °F 1016.5 in WNW 1.6 mph 3.2 mph 61 % 0.0 in
22:07 26.1 °F 18.0 °F 1016.5 in Calm   3.2 mph 61 % 0.0 in
22:12 25.9 °F 17.8 °F 1016.5 in WNW 1.6 mph 3.2 mph 61 % 0.0 in
22:17 25.8 °F 17.7 °F 1016.8 in WNW 1.6 mph 3.2 mph 61 % 0.0 in
22:22 25.8 °F 18.0 °F 1016.8 in WNW 1.6 mph 3.2 mph 62 % 0.0 in
22:32 25.4 °F 18.1 °F 1016.8 in Calm   3.2 mph 64 % 0.0 in
22:37 25.4 °F 18.1 °F 1016.8 in Calm   1.6 mph 64 % 0.0 in
22:42 25.3 °F 18.0 °F 1016.8 in Calm   1.6 mph 64 % 0.0 in
22:47 25.2 °F 18.2 °F 1016.8 in WNW 1.6 mph 1.6 mph 65 % 0.0 in
22:52 24.7 °F 18.2 °F 1016.8 in WNW 1.6 mph 3.2 mph 67 % 0.0 in
22:57 24.3 °F 18.0 °F 1016.8 in Calm   3.2 mph 68 % 0.0 in
23:02 24.3 °F 17.8 °F 1016.8 in Calm   3.2 mph 67 % 0.0 in
23:12 24.2 °F 17.7 °F 1016.8 in WNW 1.6 mph 3.2 mph 67 % 0.0 in
23:17 23.7 °F 17.7 °F 1016.8 in Calm   3.2 mph 69 % 0.0 in
23:22 23.6 °F 17.6 °F 1016.8 in Calm   3.2 mph 69 % 0.0 in
23:27 23.7 °F 17.7 °F 1016.8 in Calm   3.2 mph 69 % 0.0 in
23:32 23.7 °F 17.4 °F 1016.8 in Calm   3.2 mph 68 % 0.0 in
23:37 23.6 °F 17.6 °F 1016.8 in Calm   1.6 mph 69 % 0.0 in
23:42 23.6 °F 17.6 °F 1016.8 in Calm     69 % 0.0 in
23:52 23.5 °F 17.5 °F 1017.2 in Calm     69 % 0.0 in
23:57 23.3 °F 17.5 °F 1017.2 in Calm     70 % 0.0 in
Meteo18
Compliments of Weather Underground - 4 mb

Script developed by  Jim McMurry - jmcmurry@mwt.net Adapted for the template by  Wim van der Kuil - Leuven-Template.eu

You find our weather info also at:

European Weather Network

Weather Underground

Equipment we use:

Weather-station
Davis Vue

Weather-program
Meteobridge

Weather-server
Raspberry PI 2 B+

Provider
1 and 1

Davis Vue

Meteobridge

Raspberry PI 2 B+

1 and 1